Time;durP1;ratioP1;P1;durP2;ratioP2;P2;SDS_P1;SDS_P2;PMS_P1;PMS_P2;Temp;Humidity;BMP_temperature;BMP_pressure;BME280_temperature;BME280_humidity;BME280_pressure;Samples;Min_cycle;Max_cycle;Signal;HPM_P1;HPM_P2
2023/04/07 00:01:00;;;;;;;3.83;1.90;;;18.90;99.90;;;;;;5082094;28;20219;-76
2023/04/07 00:03:32;;;;;;;2.42;1.30;;;19.00;99.90;;;;;;5083061;28;20195;-76
2023/04/07 00:06:03;;;;;;;2.25;1.50;;;19.10;99.90;;;;;;5092053;28;20290;-76
2023/04/07 00:08:34;;;;;;;3.30;1.50;;;19.10;99.90;;;;;;5092804;28;20195;-77
2023/04/07 00:11:08;;;;;;;4.50;1.80;;;19.10;99.90;;;;;;5091341;28;20199;-77
2023/04/07 00:13:39;;;;;;;3.10;1.60;;;19.10;99.90;;;;;;5083427;28;20559;-76
2023/04/07 00:16:11;;;;;;;3.20;1.50;;;19.00;99.90;;;;;;5088244;28;20233;-76
2023/04/07 00:18:42;;;;;;;2.25;1.58;;;19.00;99.90;;;;;;5090674;28;20671;-76
2023/04/07 00:21:13;;;;;;;2.38;1.40;;;19.00;99.90;;;;;;5090709;28;20699;-76
2023/04/07 00:23:45;;;;;;;3.25;1.80;;;18.90;99.90;;;;;;5086602;28;20198;-76
2023/04/07 00:26:18;;;;;;;4.47;1.30;;;18.90;99.90;;;;;;5092315;28;20203;-76
2023/04/07 00:28:49;;;;;;;3.13;1.45;;;18.80;99.90;;;;;;5071852;28;20188;-77
2023/04/07 00:31:20;;;;;;;3.25;1.67;;;18.80;99.90;;;;;;5080252;28;20658;-75
2023/04/07 00:33:52;;;;;;;4.50;1.63;;;18.80;99.90;;;;;;5075597;28;20203;-76
2023/04/07 00:36:23;;;;;;;2.65;1.73;;;18.90;99.90;;;;;;5084107;28;20225;-76
2023/04/07 00:38:54;;;;;;;2.55;1.63;;;18.90;99.90;;;;;;5086863;28;20570;-76
2023/04/07 00:41:28;;;;;;;4.28;1.77;;;18.90;99.90;;;;;;5091378;28;20219;-76
2023/04/07 00:43:59;;;;;;;2.20;1.60;;;19.00;99.90;;;;;;5090836;28;20191;-76
2023/04/07 00:46:30;;;;;;;2.75;1.30;;;19.00;99.90;;;;;;5088916;28;20220;-75
2023/04/07 00:49:02;;;;;;;3.80;2.10;;;19.00;99.90;;;;;;5084091;28;20652;-76
2023/04/07 00:51:33;;;;;;;5.32;1.60;;;19.10;99.90;;;;;;5088959;28;20203;-75
2023/04/07 00:54:05;;;;;;;3.13;1.83;;;19.10;99.90;;;;;;5086112;28;20206;-76
2023/04/07 00:56:38;;;;;;;4.00;1.88;;;19.20;99.90;;;;;;5071685;28;20206;-77
2023/04/07 00:59:09;;;;;;;3.20;1.48;;;19.20;99.90;;;;;;5053294;28;20665;-77
2023/04/07 01:01:47;;;;;;;4.22;1.42;;;19.30;99.90;;;;;;5057962;28;20206;-77
2023/04/07 01:04:24;;;;;;;2.42;1.65;;;19.30;99.90;;;;;;5052221;28;20269;-77
2023/04/07 01:07:00;;;;;;;3.47;1.55;;;19.30;99.90;;;;;;5050617;28;20578;-77
2023/04/07 01:09:36;;;;;;;3.58;1.58;;;19.40;99.90;;;;;;5044940;28;20857;-77
2023/04/07 01:12:17;;;;;;;2.90;1.20;;;19.40;99.90;;;;;;5048926;28;20686;-76
2023/04/07 01:14:55;;;;;;;1.40;1.00;;;19.50;99.90;;;;;;5051025;28;20714;-77
2023/04/07 01:17:29;;;;;;;3.03;1.30;;;19.50;99.90;;;;;;5050985;28;20200;-77
2023/04/07 01:20:06;;;;;;;4.72;1.70;;;19.60;99.90;;;;;;5051963;28;20264;-76
2023/04/07 01:22:42;;;;;;;4.38;1.30;;;19.70;99.90;;;;;;5050122;28;21052;-76
2023/04/07 01:25:52;;;;;;;2.85;1.42;;;19.80;99.90;;;;;;5053953;28;20843;-78
2023/04/07 01:28:51;;;;;;;3.55;1.30;;;20.00;99.90;;;;;;5052166;28;20221;-77
2023/04/07 01:31:27;;;;;;;2.50;1.42;;;20.20;99.90;;;;;;5052629;28;20235;-77
2023/04/07 01:34:00;;;;;;;2.88;1.15;;;20.30;99.90;;;;;;5052893;28;20253;-77
2023/04/07 01:36:34;;;;;;;2.92;1.25;;;20.50;99.90;;;;;;5053582;28;20199;-76
2023/04/07 01:39:07;;;;;;;2.83;1.17;;;20.50;99.90;;;;;;5055637;28;20646;-77
2023/04/07 01:41:39;;;;;;;1.77;1.15;;;20.50;99.90;;;;;;5050845;28;20227;-76
2023/04/07 01:44:12;;;;;;;2.08;1.00;;;20.60;99.90;;;;;;5049611;28;20207;-76
2023/04/07 01:46:45;;;;;;;2.75;1.20;;;20.70;99.90;;;;;;5056269;28;20238;-77
2023/04/07 01:49:17;;;;;;;2.50;1.10;;;20.70;99.90;;;;;;5056062;28;20207;-76
2023/04/07 01:51:50;;;;;;;2.83;1.15;;;20.70;99.90;;;;;;5049103;28;20282;-77
2023/04/07 01:54:22;;;;;;;3.05;1.00;;;20.80;99.90;;;;;;5051053;28;20847;-77
2023/04/07 01:56:53;;;;;;;1.50;0.85;;;20.90;99.90;;;;;;5050258;28;20215;-78
2023/04/07 01:59:24;;;;;;;3.22;1.00;;;20.90;99.90;;;;;;5052195;28;20211;-77
2023/04/07 02:01:57;;;;;;;2.63;1.00;;;20.90;99.90;;;;;;5054277;28;20955;-76
2023/04/07 02:04:33;;;;;;;1.90;0.80;;;20.90;99.90;;;;;;5051307;28;20222;-77
2023/04/07 02:07:10;;;;;;;2.42;0.93;;;21.00;99.90;;;;;;5049109;28;20235;-78
2023/04/07 02:09:44;;;;;;;2.38;1.00;;;21.00;99.90;;;;;;5047793;28;20199;-77
2023/04/07 02:12:17;;;;;;;7.93;1.10;;;21.10;99.90;;;;;;5070505;28;20550;-78
2023/04/07 02:14:48;;;;;;;4.95;0.93;;;21.10;99.90;;;;;;5069404;28;20251;-78
2023/04/07 02:17:23;;;;;;;2.03;0.70;;;21.20;99.90;;;;;;5070585;28;20564;-78
2023/04/07 02:19:56;;;;;;;1.40;0.70;;;21.30;99.90;;;;;;5083011;28;20707;-79
2023/04/07 02:22:29;;;;;;;1.83;0.65;;;21.40;99.90;;;;;;5096346;28;20206;-79
2023/04/07 02:25:00;;;;;;;2.40;0.75;;;21.30;99.90;;;;;;5097176;28;20199;-80
2023/04/07 02:27:31;;;;;;;2.15;0.90;;;21.20;99.90;;;;;;5062646;28;20210;-77
2023/04/07 02:30:02;;;;;;;3.75;0.77;;;21.30;99.90;;;;;;5058685;28;20207;-77
2023/04/07 02:32:35;;;;;;;3.03;1.10;;;21.30;99.90;;;;;;5062579;28;21164;-78
2023/04/07 02:35:06;;;;;;;3.63;1.10;;;21.40;99.90;;;;;;5059783;28;20210;-79
2023/04/07 02:37:37;;;;;;;1.52;0.82;;;21.50;99.90;;;;;;5059328;28;20195;-79
2023/04/07 02:40:09;;;;;;;3.15;0.70;;;21.60;99.90;;;;;;5059977;28;20227;-79
2023/04/07 02:42:41;;;;;;;3.42;0.90;;;21.60;99.90;;;;;;5058372;28;20200;-77
2023/04/07 02:45:13;;;;;;;2.20;0.70;;;21.70;99.90;;;;;;5060167;28;21425;-78
2023/04/07 02:47:46;;;;;;;3.00;0.80;;;21.70;99.90;;;;;;5070459;28;20199;-77
2023/04/07 02:50:17;;;;;;;1.23;0.60;;;21.80;99.90;;;;;;5055661;27;20199;-78
2023/04/07 02:52:48;;;;;;;1.38;0.75;;;21.80;99.90;;;;;;5058269;28;20733;-78
2023/04/07 02:55:20;;;;;;;2.70;0.80;;;21.80;99.90;;;;;;5059148;28;20803;-78
2023/04/07 02:57:51;;;;;;;1.85;0.60;;;22.00;99.90;;;;;;5058803;28;20195;-78
2023/04/07 03:00:22;;;;;;;1.63;1.00;;;22.20;99.90;;;;;;5056465;28;20226;-77
2023/04/07 03:02:56;;;;;;;3.50;0.80;;;22.40;99.90;;;;;;5061941;28;20203;-78
2023/04/07 03:05:27;;;;;;;3.75;0.70;;;22.40;99.90;;;;;;5057251;28;20465;-78
2023/04/07 03:07:58;;;;;;;2.03;0.68;;;22.50;99.90;;;;;;5058826;28;20192;-78
2023/04/07 03:10:29;;;;;;;2.38;0.77;;;22.60;99.90;;;;;;5055728;28;20207;-78
2023/04/07 03:13:01;;;;;;;2.17;0.85;;;22.80;99.90;;;;;;5054853;28;20195;-79
2023/04/07 03:15:32;;;;;;;3.03;0.80;;;22.90;99.90;;;;;;5056033;28;20353;-78
2023/04/07 03:18:05;;;;;;;1.00;0.60;;;23.10;99.90;;;;;;5057521;28;20202;-78
2023/04/07 03:20:36;;;;;;;1.35;0.52;;;23.30;99.90;;;;;;5055608;28;20215;-77
2023/04/07 03:23:08;;;;;;;1.15;0.60;;;23.40;99.90;;;;;;5055722;28;21556;-78
2023/04/07 03:25:39;;;;;;;5.32;0.80;;;23.40;99.90;;;;;;5054630;28;21461;-78
2023/04/07 03:28:11;;;;;;;1.83;0.60;;;23.50;99.90;;;;;;5055748;28;20207;-77
2023/04/07 03:30:42;;;;;;;2.13;0.70;;;23.60;99.90;;;;;;5061201;28;20203;-78
2023/04/07 03:33:15;;;;;;;3.10;0.70;;;23.60;99.90;;;;;;5057594;28;20202;-78
2023/04/07 03:35:46;;;;;;;1.50;0.60;;;23.70;99.90;;;;;;5055003;28;20566;-78
2023/04/07 03:38:17;;;;;;;2.42;0.80;;;23.80;99.90;;;;;;5065321;28;20637;-79
2023/04/07 03:40:48;;;;;;;2.33;0.50;;;23.90;99.90;;;;;;5052598;28;20219;-78
2023/04/07 03:43:19;;;;;;;1.05;0.60;;;23.90;99.90;;;;;;5053041;28;20199;-78
2023/04/07 03:45:50;;;;;;;2.95;0.75;;;24.00;99.90;;;;;;5054064;28;20688;-79
2023/04/07 03:48:23;;;;;;;2.42;0.65;;;24.00;99.90;;;;;;5057408;28;20206;-77
2023/04/07 03:50:54;;;;;;;2.35;0.50;;;24.00;99.90;;;;;;5052806;28;20223;-77
2023/04/07 03:53:26;;;;;;;0.90;0.50;;;23.80;99.90;;;;;;5051637;28;20575;-77
2023/04/07 03:55:57;;;;;;;1.55;0.47;;;23.80;99.90;;;;;;5053610;28;20227;-77
2023/04/07 03:58:28;;;;;;;1.02;0.68;;;23.80;99.90;;;;;;5052015;28;20199;-78
2023/04/07 04:00:59;;;;;;;2.42;0.60;;;23.90;99.90;;;;;;5057091;28;20219;-78
2023/04/07 04:03:32;;;;;;;1.45;0.50;;;24.00;99.90;;;;;;5052959;28;20210;-77
2023/04/07 04:06:03;;;;;;;2.92;0.60;;;24.00;99.90;;;;;;5055291;28;20210;-78
2023/04/07 04:08:34;;;;;;;1.63;0.47;;;24.00;99.90;;;;;;5052702;28;20195;-78
2023/04/07 04:11:05;;;;;;;0.82;0.50;;;24.00;99.90;;;;;;5053260;28;20203;-78
2023/04/07 04:13:38;;;;;;;2.33;0.52;;;23.90;99.90;;;;;;5052451;28;20203;-78
2023/04/07 04:16:10;;;;;;;0.68;0.40;;;23.90;99.90;;;;;;5051895;28;20232;-78
2023/04/07 04:18:43;;;;;;;0.57;0.40;;;24.00;99.90;;;;;;5051140;28;20203;-77
2023/04/07 04:21:14;;;;;;;1.42;0.57;;;24.00;99.90;;;;;;5051715;28;20227;-77
2023/04/07 04:23:45;;;;;;;0.68;0.50;;;24.00;99.90;;;;;;5052005;28;20195;-77
2023/04/07 04:26:16;;;;;;;1.58;0.68;;;23.90;99.90;;;;;;5051848;28;20199;-77
2023/04/07 04:28:49;;;;;;;0.60;0.60;;;23.90;99.90;;;;;;5050903;28;20204;-78
2023/04/07 04:31:20;;;;;;;3.20;0.80;;;23.90;99.90;;;;;;5055553;28;20320;-76
2023/04/07 04:33:53;;;;;;;3.33;0.60;;;24.00;99.90;;;;;;5052732;28;20203;-78
2023/04/07 04:36:25;;;;;;;0.98;0.60;;;23.90;99.90;;;;;;5062002;28;20203;-78
2023/04/07 04:38:56;;;;;;;0.40;0.40;;;24.00;99.90;;;;;;5053970;28;20204;-77
2023/04/07 04:41:27;;;;;;;1.42;0.40;;;24.00;99.90;;;;;;5052121;28;20753;-77
2023/04/07 04:44:00;;;;;;;2.97;0.50;;;23.90;99.90;;;;;;5052763;28;20669;-78
2023/04/07 04:46:31;;;;;;;1.13;0.57;;;24.00;99.90;;;;;;5053160;28;20356;-78
2023/04/07 04:49:05;;;;;;;1.52;0.43;;;24.00;99.90;;;;;;5064556;28;20207;-77
2023/04/07 04:51:36;;;;;;;1.38;0.60;;;24.10;99.90;;;;;;5052418;28;20207;-78
2023/04/07 04:54:07;;;;;;;0.75;0.32;;;24.10;99.90;;;;;;5054030;28;20196;-83
2023/04/07 04:56:38;;;;;;;1.35;0.40;;;24.20;99.90;;;;;;5053610;28;20207;-80
2023/04/07 04:59:09;;;;;;;0.98;0.60;;;24.30;99.90;;;;;;5056362;28;20282;-80
2023/04/07 05:01:40;;;;;;;0.82;0.32;;;24.40;99.90;;;;;;5059631;28;20242;-79
2023/04/07 05:04:13;;;;;;;0.85;0.55;;;24.40;99.90;;;;;;5052984;28;20200;-80
2023/04/07 05:06:44;;;;;;;0.85;0.40;;;24.40;99.90;;;;;;5054350;28;20211;-81
2023/04/07 05:09:16;;;;;;;1.40;0.70;;;24.40;99.90;;;;;;5054642;28;20825;-79
2023/04/07 05:11:47;;;;;;;0.93;0.50;;;24.50;99.90;;;;;;5055819;28;20204;-79
2023/04/07 05:14:18;;;;;;;1.20;0.47;;;24.50;99.90;;;;;;5053985;28;20569;-81
2023/04/07 05:16:51;;;;;;;0.98;0.52;;;24.40;99.90;;;;;;5052545;28;20586;-80
2023/04/07 05:19:26;;;;;;;2.38;0.40;;;24.50;99.90;;;;;;5054155;28;20206;-80
2023/04/07 05:21:57;;;;;;;1.20;0.45;;;24.50;99.90;;;;;;5052047;28;20238;-81
2023/04/07 05:24:30;;;;;;;3.50;1.33;;;24.50;99.90;;;;;;5053601;28;20242;-80
2023/04/07 05:27:01;;;;;;;4.68;1.45;;;24.60;99.90;;;;;;5053463;28;20196;-81
2023/04/07 05:29:32;;;;;;;5.47;1.77;;;24.60;99.90;;;;;;5068129;28;20207;-80
2023/04/07 05:32:03;;;;;;;3.78;1.30;;;24.60;99.90;;;;;;5075090;28;20274;-80
2023/04/07 05:34:37;;;;;;;2.45;1.30;;;24.70;99.90;;;;;;5072666;28;20214;-79
2023/04/07 05:37:10;;;;;;;3.63;1.20;;;24.60;99.90;;;;;;5090786;28;20208;-80
2023/04/07 05:39:41;;;;;;;2.10;1.17;;;24.60;99.90;;;;;;5088204;28;20249;-80
2023/04/07 05:42:12;;;;;;;7.10;1.70;;;24.60;99.90;;;;;;5087992;28;20724;-80
2023/04/07 05:44:45;;;;;;;7.47;1.65;;;24.60;99.90;;;;;;5089497;28;20223;-80
2023/04/07 05:47:17;;;;;;;5.25;1.27;;;24.50;99.90;;;;;;5087082;28;20223;-80
2023/04/07 05:49:50;;;;;;;3.45;1.13;;;24.60;99.90;;;;;;5087553;28;20195;-80
2023/04/07 05:52:21;;;;;;;2.33;1.02;;;24.50;99.90;;;;;;5079929;28;20203;-80
2023/04/07 05:54:53;;;;;;;4.18;1.10;;;24.50;99.90;;;;;;5082815;28;20203;-80
2023/04/07 05:57:26;;;;;;;5.45;1.20;;;24.50;99.90;;;;;;5078785;28;20573;-80
2023/04/07 05:59:57;;;;;;;4.15;1.55;;;24.50;99.90;;;;;;5082836;28;20195;-80
2023/04/07 06:02:28;;;;;;;3.80;1.10;;;24.50;99.90;;;;;;5081394;28;20215;-80
2023/04/07 06:05:01;;;;;;;4.93;1.17;;;24.60;99.90;;;;;;5079750;28;20278;-79
2023/04/07 06:07:32;;;;;;;4.63;1.45;;;24.70;99.90;;;;;;5080503;28;20667;-79
2023/04/07 06:10:03;;;;;;;4.97;1.50;;;24.90;99.90;;;;;;5071712;28;20658;-80
2023/04/07 06:12:34;;;;;;;6.57;1.35;;;24.90;99.90;;;;;;5082152;28;20646;-80
2023/04/07 06:15:06;;;;;;;6.13;1.55;;;24.70;99.90;;;;;;5078398;28;20738;-79
2023/04/07 06:17:37;;;;;;;4.65;1.13;;;24.40;99.90;;;;;;5080458;28;20206;-80
2023/04/07 06:20:11;;;;;;;7.95;1.75;;;24.20;99.90;;;;;;5089232;28;20203;-81
2023/04/07 06:22:42;;;;;;;2.65;1.23;;;24.10;99.90;;;;;;5089885;28;20230;-79
2023/04/07 06:25:13;;;;;;;1.77;0.93;;;24.00;99.90;;;;;;5082846;28;20199;-80
2023/04/07 06:27:44;;;;;;;2.88;0.80;;;23.80;99.90;;;;;;5071675;28;20207;-81
2023/04/07 06:30:16;;;;;;;3.47;1.00;;;23.70;99.90;;;;;;5081173;28;20218;-82
2023/04/07 06:32:47;;;;;;;1.15;0.65;;;23.50;99.90;;;;;;5071389;28;20203;-80
2023/04/07 06:35:20;;;;;;;1.05;0.63;;;23.40;99.90;;;;;;5090551;28;20202;-80
2023/04/07 06:37:51;;;;;;;0.85;0.60;;;23.50;99.90;;;;;;5080613;28;20191;-80
2023/04/07 06:40:23;;;;;;;0.40;0.40;;;23.40;99.90;;;;;;5097527;28;20188;-79
2023/04/07 06:42:54;;;;;;;0.50;0.50;;;23.50;99.90;;;;;;5095861;28;20234;-80
2023/04/07 06:45:25;;;;;;;0.60;0.60;;;23.50;99.90;;;;;;5085895;28;20222;-80
2023/04/07 06:47:56;;;;;;;0.60;0.52;;;23.50;99.90;;;;;;5082220;28;20560;-81
2023/04/07 06:50:29;;;;;;;1.15;0.70;;;23.50;99.90;;;;;;5076990;28;20199;-81
2023/04/07 06:53:01;;;;;;;2.45;0.70;;;23.50;99.90;;;;;;5070597;28;20192;-79
2023/04/07 06:55:32;;;;;;;2.53;0.90;;;23.50;99.90;;;;;;5079953;28;20215;-80
2023/04/07 06:58:03;;;;;;;1.88;0.70;;;23.50;99.90;;;;;;5082166;28;20584;-79
2023/04/07 07:00:34;;;;;;;0.68;0.60;;;23.40;99.90;;;;;;5070791;28;20196;-81
2023/04/07 07:03:05;;;;;;;2.45;1.00;;;23.40;99.90;;;;;;5076575;28;20227;-78
2023/04/07 07:05:39;;;;;;;3.67;1.00;;;23.40;99.90;;;;;;5076655;28;20279;-77
2023/04/07 07:08:10;;;;;;;3.42;1.00;;;23.50;99.90;;;;;;5087831;28;20238;-78
2023/04/07 07:10:41;;;;;;;1.08;0.80;;;23.40;99.90;;;;;;5091711;28;20204;-77
2023/04/07 07:13:12;;;;;;;3.10;1.02;;;23.40;99.90;;;;;;5078792;28;20207;-77
2023/04/07 07:15:43;;;;;;;2.13;0.90;;;23.30;99.90;;;;;;5087358;28;20223;-77
2023/04/07 07:18:14;;;;;;;1.23;0.80;;;23.30;99.90;;;;;;5073861;28;20206;-78
2023/04/07 07:20:47;;;;;;;1.10;0.70;;;23.20;99.90;;;;;;5076456;28;20591;-78
2023/04/07 07:23:18;;;;;;;1.23;0.80;;;23.10;99.90;;;;;;5087279;28;20231;-77
2023/04/07 07:25:50;;;;;;;2.97;1.02;;;23.10;99.90;;;;;;5075369;28;20194;-77
2023/04/07 07:28:22;;;;;;;1.08;0.80;;;23.10;99.90;;;;;;5076658;28;20269;-76
2023/04/07 07:30:53;;;;;;;1.60;0.80;;;23.10;99.90;;;;;;5084166;28;20196;-77
2023/04/07 07:33:24;;;;;;;1.52;0.80;;;23.10;99.90;;;;;;5074847;28;20196;-78
2023/04/07 07:35:57;;;;;;;1.08;0.80;;;23.10;99.90;;;;;;5074181;28;20234;-77
2023/04/07 07:38:28;;;;;;;1.00;0.90;;;23.10;99.90;;;;;;5075004;28;20199;-76
2023/04/07 07:40:59;;;;;;;1.67;1.08;;;23.10;99.90;;;;;;5093346;28;20198;-78
2023/04/07 07:43:31;;;;;;;0.85;0.85;;;23.10;99.90;;;;;;5083224;28;20222;-79
2023/04/07 07:46:02;;;;;;;2.25;0.90;;;23.10;99.90;;;;;;5088534;28;20638;-77
2023/04/07 07:48:33;;;;;;;0.82;0.82;;;23.10;99.90;;;;;;5080748;28;20215;-78
2023/04/07 07:51:06;;;;;;;2.30;0.80;;;23.10;99.90;;;;;;5088438;28;20199;-77
2023/04/07 07:53:37;;;;;;;0.70;0.70;;;23.00;99.90;;;;;;5076526;28;20208;-76
2023/04/07 07:56:08;;;;;;;1.40;0.90;;;23.00;99.90;;;;;;5092067;28;20558;-77
2023/04/07 07:58:49;;;;;;;1.38;0.70;;;22.80;99.90;;;;;;5080227;28;20192;-76
2023/04/07 08:01:20;;;;;;;1.30;0.70;;;22.80;99.90;;;;;;5074622;28;20196;-77
2023/04/07 08:03:51;;;;;;;1.17;0.68;;;22.70;99.90;;;;;;5077447;28;20304;-78
2023/04/07 08:06:24;;;;;;;2.10;0.95;;;22.60;99.90;;;;;;5072875;28;20282;-78
2023/04/07 08:08:56;;;;;;;1.00;0.80;;;22.60;99.90;;;;;;5075213;28;20192;-77
2023/04/07 08:11:27;;;;;;;0.98;0.70;;;22.50;99.90;;;;;;5083250;28;20587;-76
2023/04/07 08:13:58;;;;;;;1.67;0.90;;;22.50;99.90;;;;;;5078138;28;20207;-76
2023/04/07 08:16:29;;;;;;;0.80;0.80;;;22.50;99.90;;;;;;5086958;28;20234;-77
2023/04/07 08:19:00;;;;;;;1.73;1.00;;;22.50;99.90;;;;;;5086295;28;20570;-78
2023/04/07 08:21:34;;;;;;;0.82;0.70;;;22.50;99.90;;;;;;5086934;28;20202;-77
2023/04/07 08:24:05;;;;;;;1.45;0.80;;;22.40;99.90;;;;;;5093309;28;20203;-76
2023/04/07 08:26:36;;;;;;;3.03;0.80;;;22.40;99.90;;;;;;5083259;28;20198;-77
2023/04/07 08:29:07;;;;;;;1.27;0.73;;;22.40;99.90;;;;;;5071881;28;20651;-77
2023/04/07 08:31:39;;;;;;;1.02;0.88;;;22.40;99.90;;;;;;5082742;28;20689;-78
2023/04/07 08:34:10;;;;;;;1.83;1.00;;;22.40;99.90;;;;;;5089027;28;20282;-78
2023/04/07 08:36:43;;;;;;;1.73;1.20;;;22.40;99.90;;;;;;5083738;28;20731;-78
2023/04/07 08:39:14;;;;;;;1.80;0.90;;;22.40;99.90;;;;;;5072697;28;20670;-79
2023/04/07 08:41:46;;;;;;;1.40;1.10;;;22.30;99.90;;;;;;5080439;28;20187;-78
2023/04/07 08:44:18;;;;;;;1.00;0.77;;;22.30;99.90;;;;;;5080173;28;20196;-77
2023/04/07 08:46:52;;;;;;;1.38;1.00;;;22.30;99.90;;;;;;5073933;28;20712;-79
2023/04/07 08:49:24;;;;;;;2.53;0.80;;;22.30;99.90;;;;;;5086229;28;20283;-79
2023/04/07 08:51:58;;;;;;;0.80;0.80;;;22.30;99.90;;;;;;5078803;28;20202;-80
2023/04/07 08:54:32;;;;;;;1.75;1.10;;;22.40;99.90;;;;;;5086522;28;20672;-80
2023/04/07 08:57:04;;;;;;;2.35;1.20;;;22.30;99.90;;;;;;5088837;28;20193;-77
2023/04/07 08:59:36;;;;;;;1.88;1.27;;;22.30;99.90;;;;;;5084442;28;20199;-77
2023/04/07 09:02:08;;;;;;;1.25;0.90;;;22.40;99.90;;;;;;5079846;28;20291;-79
2023/04/07 09:04:39;;;;;;;1.63;0.90;;;22.40;99.90;;;;;;5080609;28;20208;-78
2023/04/07 09:07:13;;;;;;;4.60;1.20;;;22.40;99.90;;;;;;5091189;28;20570;-79
2023/04/07 09:09:44;;;;;;;1.33;1.05;;;22.30;99.90;;;;;;5092332;28;20199;-80
2023/04/07 09:12:15;;;;;;;2.72;1.10;;;22.40;99.90;;;;;;5089453;28;20712;-79
2023/04/07 09:14:46;;;;;;;1.00;0.90;;;22.40;99.90;;;;;;5091974;28;20309;-79
2023/04/07 09:17:17;;;;;;;1.55;0.90;;;22.40;99.90;;;;;;5086397;28;20202;-80
2023/04/07 09:19:49;;;;;;;1.98;1.02;;;22.40;99.90;;;;;;5085970;28;20192;-79
2023/04/07 09:22:38;;;;;;;1.33;0.95;;;22.30;99.90;;;;;;5076055;28;20223;-79
2023/04/07 09:25:21;;;;;;;1.88;0.98;;;22.30;99.90;;;;;;5078346;28;20211;-79
2023/04/07 09:27:59;;;;;;;1.48;0.90;;;22.30;99.90;;;;;;5083606;28;20198;-80
2023/04/07 09:30:33;;;;;;;1.33;0.70;;;22.30;99.90;;;;;;5079995;28;20195;-79
2023/04/07 09:33:05;;;;;;;2.13;0.93;;;22.30;99.90;;;;;;5085402;28;20196;-81
2023/04/07 09:35:53;;;;;;;1.70;0.80;;;22.30;99.90;;;;;;5072821;28;20640;-79
2023/04/07 09:38:34;;;;;;;0.70;0.70;;;22.30;99.90;;;;;;5083482;28;20196;-79
2023/04/07 09:41:12;;;;;;;0.75;0.65;;;22.30;99.90;;;;;;5081157;28;20288;-79
2023/04/07 09:43:45;;;;;;;2.65;0.70;;;22.30;99.90;;;;;;5072503;28;20219;-80
2023/04/07 09:46:17;;;;;;;0.73;0.70;;;22.30;99.90;;;;;;5086574;28;20791;-79
2023/04/07 09:48:49;;;;;;;0.95;0.95;;;22.30;99.90;;;;;;5078931;28;20234;-78
2023/04/07 09:51:21;;;;;;;1.35;0.77;;;22.40;99.90;;;;;;5077992;28;20200;-79
2023/04/07 09:53:54;;;;;;;1.35;0.70;;;22.40;99.90;;;;;;5069530;28;20227;-79
2023/04/07 09:56:26;;;;;;;0.60;0.60;;;22.40;99.90;;;;;;5081170;28;20203;-79
2023/04/07 09:58:57;;;;;;;1.58;0.80;;;22.30;99.90;;;;;;5076253;28;20187;-80
2023/04/07 10:01:28;;;;;;;0.98;0.85;;;22.40;99.90;;;;;;5073366;28;20681;-79
2023/04/07 10:03:59;;;;;;;0.93;0.70;;;22.30;99.90;;;;;;5085810;28;20241;-79
2023/04/07 10:06:31;;;;;;;1.50;0.70;;;22.40;99.90;;;;;;5084264;28;20581;-80
2023/04/07 10:09:05;;;;;;;0.75;0.70;;;22.30;99.90;;;;;;5068888;28;20195;-79
2023/04/07 10:11:36;;;;;;;1.95;0.85;;;22.30;99.90;;;;;;5073794;28;20203;-79
2023/04/07 10:14:07;;;;;;;0.90;0.75;;;22.40;99.90;;;;;;5071870;28;20199;-78
2023/04/07 10:16:39;;;;;;;1.10;0.80;;;22.40;99.90;;;;;;5083364;28;20226;-83
2023/04/07 10:19:12;;;;;;;1.23;0.80;;;22.40;99.90;;;;;;5082292;28;20200;-78
2023/04/07 10:21:45;;;;;;;1.88;0.70;;;22.40;99.90;;;;;;5087494;28;20199;-78
2023/04/07 10:24:29;;;;;;;1.50;0.57;;;22.40;99.90;;;;;;5081552;28;20216;-80
2023/04/07 10:27:06;;;;;;;0.70;0.57;;;22.40;99.90;;;;;;5084545;28;20201;-78
2023/04/07 10:29:43;;;;;;;3.95;1.63;;;22.40;99.90;;;;;;5079134;28;20199;-79
2023/04/07 10:32:14;;;;;;;4.50;1.63;;;22.50;99.90;;;;;;5081888;28;20677;-77
2023/04/07 10:35:02;;;;;;;1.38;1.13;;;22.50;99.90;;;;;;5070754;28;20671;-79
2023/04/07 10:37:33;;;;;;;2.95;0.80;;;22.40;99.90;;;;;;5071553;28;21994;-77
2023/04/07 10:40:33;;;;;;;1.67;1.00;;;22.30;99.90;;;;;;5050940;28;20573;-78
2023/04/07 10:43:08;;;;;;;1.80;1.10;;;22.10;99.90;;;;;;5058510;28;20228;-78
2023/04/07 10:46:00;;;;;;;0.98;0.80;;;22.00;99.90;;;;;;5055417;28;20223;-79
2023/04/07 10:48:32;;;;;;;0.73;0.43;;;21.80;99.90;;;;;;5074742;28;20206;-79
2023/04/07 10:51:17;;;;;;;0.50;0.50;;;21.30;99.90;;;;;;5084677;28;20205;-77
2023/04/07 10:54:22;;;;;;;2.72;0.80;;;21.10;99.90;;;;;;5088933;28;20223;-78
2023/04/07 10:57:14;;;;;;;3.67;1.00;;;20.70;99.90;;;;;;5063383;28;20256;-78
2023/04/07 11:00:19;;;;;;;5.10;1.25;;;20.40;99.90;;;;;;5051984;28;20235;-78
2023/04/07 11:02:50;;;;;;;3.60;0.93;;;20.10;99.90;;;;;;5055012;28;20265;-79
2023/04/07 11:05:25;;;;;;;5.88;1.25;;;20.10;99.90;;;;;;5062960;28;20286;-79
2023/04/07 11:07:58;;;;;;;5.72;0.90;;;20.20;99.90;;;;;;5080956;28;20210;-78
2023/04/07 11:10:29;;;;;;;6.32;1.20;;;20.10;99.90;;;;;;5086824;28;20235;-79
2023/04/07 11:13:11;;;;;;;5.13;1.67;;;20.10;99.90;;;;;;5083448;28;20534;-80
2023/04/07 11:15:42;;;;;;;3.35;1.42;;;20.00;99.90;;;;;;5083649;28;20232;-78
2023/04/07 11:18:21;;;;;;;4.80;1.75;;;20.00;99.90;;;;;;5092452;28;20199;-78
2023/04/07 11:20:53;;;;;;;2.97;1.23;;;19.90;99.90;;;;;;5090543;28;20199;-78
2023/04/07 11:23:26;;;;;;;2.60;1.23;;;20.00;99.90;;;;;;5082270;28;20227;-78
2023/04/07 11:26:03;;;;;;;2.25;1.05;;;20.00;99.90;;;;;;5073751;28;20239;-81
2023/04/07 11:28:36;;;;;;;2.60;0.85;;;19.90;99.90;;;;;;5082266;28;20570;-78
2023/04/07 11:31:07;;;;;;;1.95;1.00;;;19.80;99.90;;;;;;5092807;28;20227;-79
2023/04/07 11:33:38;;;;;;;1.27;0.82;;;19.80;99.90;;;;;;5083538;28;20199;-80
2023/04/07 11:36:10;;;;;;;1.33;0.85;;;19.70;99.90;;;;;;5091670;28;20208;-78
2023/04/07 11:38:42;;;;;;;2.67;0.80;;;19.70;99.90;;;;;;5084307;28;20669;-76
2023/04/07 11:41:17;;;;;;;1.05;0.70;;;19.70;99.90;;;;;;5089031;28;20202;-80
2023/04/07 11:43:50;;;;;;;1.55;0.75;;;19.70;99.90;;;;;;5077776;28;20215;-79
2023/04/07 11:46:22;;;;;;;0.98;0.60;;;19.70;99.90;;;;;;5089717;28;20420;-78
2023/04/07 11:48:53;;;;;;;1.25;0.75;;;19.70;99.90;;;;;;5090469;28;20241;-78
2023/04/07 11:51:26;;;;;;;1.05;0.77;;;19.70;99.90;;;;;;5078354;28;20670;-79
2023/04/07 11:53:58;;;;;;;0.80;0.55;;;19.70;99.90;;;;;;5089003;28;20567;-80
2023/04/07 11:56:30;;;;;;;1.10;0.50;;;19.70;99.90;;;;;;5093234;28;20551;-79
2023/04/07 11:59:03;;;;;;;2.17;0.60;;;19.60;99.90;;;;;;5088817;28;20199;-79
2023/04/07 12:01:43;;;;;;;1.55;0.63;;;19.60;99.90;;;;;;5082857;28;20237;-78
2023/04/07 12:04:16;;;;;;;3.08;1.00;;;19.60;99.90;;;;;;5092015;28;20638;-80
2023/04/07 12:06:49;;;;;;;2.00;0.77;;;19.60;99.90;;;;;;5086444;28;20199;-78
2023/04/07 12:09:33;;;;;;;1.23;0.70;;;19.60;99.90;;;;;;5075931;28;20206;-79
2023/04/07 12:12:05;;;;;;;0.80;0.70;;;19.60;99.90;;;;;;5087878;28;20244;-79
2023/04/07 12:14:38;;;;;;;1.15;0.80;;;19.60;99.90;;;;;;5087709;28;20724;-79
2023/04/07 12:17:21;;;;;;;1.15;0.70;;;19.60;99.90;;;;;;5073480;28;20248;-78
2023/04/07 12:19:52;;;;;;;1.17;0.68;;;19.60;99.90;;;;;;5080152;28;20195;-79
2023/04/07 12:22:23;;;;;;;0.85;0.52;;;19.60;99.90;;;;;;5089204;28;20677;-79
2023/04/07 12:24:54;;;;;;;0.77;0.60;;;19.60;99.90;;;;;;5083749;28;20219;-79
2023/04/07 12:27:25;;;;;;;2.15;0.70;;;19.70;99.90;;;;;;5087868;28;20199;-78
2023/04/07 12:29:58;;;;;;;0.98;0.63;;;19.70;99.90;;;;;;5079339;28;20191;-78
2023/04/07 12:32:29;;;;;;;2.90;0.75;;;19.70;99.90;;;;;;5091752;28;20199;-79
2023/04/07 12:35:01;;;;;;;1.25;0.70;;;19.70;99.90;;;;;;5086262;28;20215;-79
2023/04/07 12:37:32;;;;;;;1.20;0.70;;;19.70;99.90;;;;;;5095105;28;20199;-79
2023/04/07 12:40:03;;;;;;;1.08;0.90;;;19.70;99.90;;;;;;5080016;28;20195;-78
2023/04/07 12:42:35;;;;;;;2.75;0.73;;;19.70;99.90;;;;;;5091179;28;20195;-78
2023/04/07 12:45:08;;;;;;;1.27;0.80;;;19.70;99.90;;;;;;5083222;28;20233;-78
2023/04/07 12:47:40;;;;;;;2.58;0.80;;;19.70;99.90;;;;;;5071476;28;20243;-78
2023/04/07 12:50:11;;;;;;;0.75;0.70;;;19.70;99.90;;;;;;5083013;28;20206;-79
2023/04/07 12:52:42;;;;;;;1.02;0.73;;;19.70;99.90;;;;;;5085541;28;20204;-79
2023/04/07 12:55:13;;;;;;;1.15;0.77;;;19.70;99.90;;;;;;5072084;28;20215;-79
2023/04/07 12:57:44;;;;;;;2.20;0.60;;;19.70;99.90;;;;;;5078795;28;20208;-78
2023/04/07 13:00:18;;;;;;;1.20;0.90;;;19.60;99.90;;;;;;5077998;28;20221;-80
2023/04/07 13:02:49;;;;;;;2.05;0.80;;;19.60;99.90;;;;;;5083167;28;20192;-79
2023/04/07 13:05:20;;;;;;;1.20;0.70;;;19.60;99.90;;;;;;5076852;28;20227;-81
2023/04/07 13:07:51;;;;;;;0.60;0.60;;;19.60;99.90;;;;;;5086968;28;20200;-79
2023/04/07 13:10:23;;;;;;;1.17;0.70;;;19.60;99.90;;;;;;5079212;28;20212;-80
2023/04/07 13:12:54;;;;;;;1.45;0.90;;;19.50;99.90;;;;;;5085694;28;20207;-80
2023/04/07 13:15:27;;;;;;;1.27;0.93;;;19.50;99.90;;;;;;5080346;28;20226;-78
2023/04/07 13:17:58;;;;;;;1.38;0.60;;;19.50;99.90;;;;;;5089426;28;20198;-80